^^
Station Historical Data
Daily Summary for January 22, 2018 Units:  Metric    English   Both
« Previous Day
Next Day »
Daily Weekly Monthly Yearly Custom
  High: Low: Average:
Temperature: -17.8 °C 15.2 °C 23.8 °C
Dew Point: -17.8 °C 0.2 °C 5.5 °C
Humidity: Humidity% 17% 35%
Wind Speed: 0km/h 0km/h 3.4km/h
Wind Gust: 0km/h - -
Wind- - WSW
Pressure: 0 hPa 1001.9 hPa -
Precipitation: 0 mm    
Historical Graphs
 
 
Tabular Data for January 22, 2018
Time Temperature Dew Point Pressure Wind Wind Speed Wind Gust Humidity Rainfall Rate (Hourly) solar Conditions
-17.8 °C -17.8 °C 0 hPa Calm     Humidity% 0 mm SolarRadiationWatts/m^2 W/m2 Conditions
00:05 19.7 °C 8.4 °C 1006.7 hPa Calm     48% 0 mm 0.0 W/m2
00:15 19.7 °C 8.4 °C 1006.7 hPa Calm     48% 0 mm 0.0 W/m2
00:25 19.7 °C 8.1 °C 1006.7 hPa Calm     47% 0 mm 0.0 W/m2
00:35 19.8 °C 8.5 °C 1006.7 hPa Calm   1.6 km/h 48% 0 mm 0.0 W/m2
00:40 19.8 °C 8.5 °C 1006.7 hPa Calm   3.2 km/h 48% 0 mm 0.0 W/m2
00:56 19.8 °C 9.1 °C 1006.7 hPa Calm   6.4 km/h 50% 0 mm 0.0 W/m2
01:01 19.8 °C 9.1 °C 1006.7 hPa NNE 1.4 km/h 3.2 km/h 50% 0 mm 0.0 W/m2
01:11 19.7 °C 9 °C 1006.3 hPa NNE 4.7 km/h 4.8 km/h 50% 0 mm 0.0 W/m2
01:16 19.7 °C 8.7 °C 1006.3 hPa North 1.4 km/h 4.8 km/h 49% 0 mm 0.0 W/m2
01:21 19.7 °C 9 °C 1006.3 hPa Calm   1.6 km/h 50% 0 mm 0.0 W/m2
01:31 19.6 °C 8.9 °C 1006.3 hPa Calm     50% 0 mm 0.0 W/m2
01:36 19.6 °C 9.2 °C 1006.3 hPa Calm     51% 0 mm 0.0 W/m2
01:42 19.5 °C 9.1 °C 1006.3 hPa Calm     51% 0 mm 0.0 W/m2
01:47 19.4 °C 9 °C 1006 hPa Calm   3.2 km/h 51% 0 mm 0.0 W/m2
01:52 19.3 °C 9.2 °C 1006.3 hPa Calm   1.6 km/h 52% 0 mm 0.0 W/m2
01:57 19.3 °C 9.5 °C 1006 hPa Calm     53% 0 mm 0.0 W/m2
02:02 19.2 °C 9.4 °C 1006 hPa Calm     53% 0 mm 0.0 W/m2
02:07 19.1 °C 9.6 °C 1006 hPa Calm   1.6 km/h 54% 0 mm 0.0 W/m2
02:12 19.1 °C 9.8 °C 1006 hPa Calm     55% 0 mm 0.0 W/m2
02:17 19.1 °C 9.6 °C 1006 hPa Calm     54% 0 mm 0.0 W/m2
02:23 19 °C 9.5 °C 1006 hPa SE 1.4 km/h 1.6 km/h 54% 0 mm 0.0 W/m2
02:28 19.1 °C 9.8 °C 1006 hPa Calm     55% 0 mm 0.0 W/m2
02:33 19.1 °C 10.4 °C 1006 hPa Calm     57% 0 mm 0.0 W/m2
02:38 19.1 °C 10.4 °C 1006 hPa Calm     57% 0 mm 0.0 W/m2
02:43 19 °C 10.5 °C 1006 hPa Calm     58% 0 mm 0.0 W/m2
02:48 19 °C 10.5 °C 1006 hPa Calm     58% 0 mm 0.0 W/m2
02:53 19 °C 10.5 °C 1006 hPa Calm     58% 0 mm 0.0 W/m2
02:58 19 °C 10.5 °C 1006 hPa Calm     58% 0 mm 0.0 W/m2
03:03 18.9 °C 10.7 °C 1006 hPa Calm     59% 0 mm 0.0 W/m2
03:08 18.9 °C 11 °C 1006 hPa Calm   1.6 km/h 60% 0 mm 0.0 W/m2
03:14 18.9 °C 11.2 °C 1006 hPa Calm   1.6 km/h 61% 0 mm 0.0 W/m2
03:19 18.9 °C 11.5 °C 1006 hPa Calm     62% 0 mm 0.0 W/m2
03:24 18.8 °C 11.4 °C 1005.6 hPa Calm     62% 0 mm 0.0 W/m2
03:29 18.8 °C 11.4 °C 1005.6 hPa Calm     62% 0 mm 0.0 W/m2
03:34 18.7 °C 11.3 °C 1005.6 hPa Calm     62% 0 mm 0.0 W/m2
03:39 18.6 °C 11.2 °C 1005.6 hPa Calm     62% 0 mm 0.0 W/m2
03:44 18.6 °C 11.2 °C 1006 hPa Calm     62% 0 mm 0.0 W/m2
03:49 18.4 °C 11.2 °C 1005.6 hPa Calm     63% 0 mm 0.0 W/m2
03:55 18.3 °C 11.1 °C 1005.6 hPa Calm     63% 0 mm 0.0 W/m2
04:00 18.2 °C 11 °C 1005.6 hPa Calm     63% 0 mm 0.0 W/m2
04:05 18.1 °C 10.9 °C 1005.6 hPa Calm     63% 0 mm 0.0 W/m2
04:10 17.9 °C 10.8 °C 1005.6 hPa Calm     63% 0 mm 0.0 W/m2
04:15 17.8 °C 10.7 °C 1005.6 hPa Calm     63% 0 mm 0.0 W/m2
04:20 17.7 °C 10.6 °C 1005.6 hPa Calm     63% 0 mm 0.0 W/m2
04:25 17.6 °C 10.5 °C 1005.6 hPa Calm     63% 0 mm 0.0 W/m2
04:30 17.4 °C 9.8 °C 1005.6 hPa Calm     61% 0 mm 0.0 W/m2
04:45 17.1 °C 8.8 °C 1005.6 hPa Calm     58% 0 mm 0.0 W/m2
04:51 16.9 °C 8.8 °C 1005.6 hPa Calm   1.6 km/h 59% 0 mm 0.0 W/m2
04:56 16.7 °C 8.6 °C 1005.6 hPa Calm     59% 0 mm 0.0 W/m2
05:06 16.5 °C 9 °C 1005.6 hPa Calm     61% 0 mm 0.0 W/m2
05:11 16.4 °C 9.1 °C 1005.6 hPa Calm     62% 0 mm 0.0 W/m2
05:16 16.3 °C 9 °C 1005.6 hPa Calm     62% 0 mm 0.0 W/m2
05:21 16.2 °C 9.1 °C 1005.6 hPa Calm     63% 0 mm 0.0 W/m2
05:26 16.1 °C 9.1 °C 1006 hPa Calm     63% 0 mm 0.0 W/m2
05:31 16.1 °C 9.1 °C 1006 hPa Calm   1.6 km/h 63% 0 mm 0.0 W/m2
05:37 15.9 °C 9.1 °C 1006 hPa Calm     64% 0 mm 0.0 W/m2
05:47 15.8 °C 9.5 °C 1006 hPa Calm     66% 0 mm 0.0 W/m2
05:57 15.7 °C 9.4 °C 1006 hPa Calm   1.6 km/h 66% 0 mm 0.0 W/m2
06:02 15.6 °C 9 °C 1006.3 hPa Calm   1.6 km/h 65% 0 mm 0.0 W/m2
06:07 15.6 °C 9 °C 1006.3 hPa Calm   1.6 km/h 65% 0 mm 0.0 W/m2
06:12 15.5 °C 9.2 °C 1006.3 hPa Calm   1.6 km/h 66% 0 mm 0.0 W/m2
06:17 15.4 °C 9.1 °C 1006.3 hPa Calm   1.6 km/h 66% 0 mm 0.0 W/m2
06:23 15.3 °C 9 °C 1006.3 hPa SSE 1.4 km/h 1.6 km/h 66% 0 mm 0.0 W/m2
06:28 15.3 °C 9 °C 1006.3 hPa Calm   1.6 km/h 66% 0 mm 0.0 W/m2
06:38 15.2 °C 8.9 °C 1006.3 hPa Calm   1.6 km/h 66% 0 mm 9.0 W/m2
06:48 15.2 °C 8.7 °C 1006.3 hPa Calm     65% 0 mm 16.0 W/m2
06:53 15.2 °C 8.7 °C 1006.3 hPa Calm     65% 0 mm 21.0 W/m2
06:58 15.3 °C 8.8 °C 1006.3 hPa Calm     65% 0 mm 28.0 W/m2
07:03 15.3 °C 9 °C 1006.3 hPa Calm     66% 0 mm 33.0 W/m2
07:09 15.3 °C 9 °C 1006.7 hPa Calm     66% 0 mm 37.0 W/m2
07:14 15.4 °C 8.9 °C 1006.7 hPa East 3.2 km/h 4.8 km/h 65% 0 mm 39.0 W/m2
07:19 15.6 °C 9 °C 1006.7 hPa East 6.4 km/h 6.4 km/h 65% 0 mm 37.0 W/m2
07:24 15.8 °C 9.5 °C 1006.7 hPa Calm   1.6 km/h 66% 0 mm 37.0 W/m2
07:34 16.1 °C 9.7 °C 1006.7 hPa Calm   1.6 km/h 66% 0 mm 44.0 W/m2
07:39 16.2 °C 9.8 °C 1006.7 hPa NE 3.2 km/h 6.4 km/h 66% 0 mm 51.0 W/m2
07:44 16.4 °C 10 °C 1006.7 hPa Calm   6.4 km/h 66% 0 mm 84.0 W/m2
07:49 16.9 °C 10 °C 1006.7 hPa NE 3.2 km/h 6.4 km/h 64% 0 mm 148.0 W/m2
07:54 17.4 °C 10 °C 1006.7 hPa Calm   6.4 km/h 62% 0 mm 202.0 W/m2
08:00 17.8 °C 10.2 °C 1006.7 hPa NE 1.4 km/h 3.2 km/h 61% 0 mm 220.0 W/m2
08:05 18.2 °C 10.3 °C 1006.7 hPa Calm   3.2 km/h 60% 0 mm 302.0 W/m2
08:10 18.7 °C 10.8 °C 1006.7 hPa East 3.2 km/h 4.8 km/h 60% 0 mm 394.0 W/m2
08:15 19.3 °C 10.8 °C 1006.7 hPa NNW 1.4 km/h 1.6 km/h 58% 0 mm 348.0 W/m2
08:20 20.2 °C 11.4 °C 1006.7 hPa NNW 3.2 km/h 4.8 km/h 57% 0 mm 376.0 W/m2
08:25 20.9 °C 11.8 °C 1006.7 hPa NNW 1.4 km/h 3.2 km/h 56% 0 mm 422.0 W/m2
08:30 21.5 °C 11.5 °C 1006.7 hPa Calm   4.8 km/h 53% 0 mm 429.0 W/m2
08:35 22.1 °C 11.2 °C 1006.7 hPa NNW 1.4 km/h 4.8 km/h 50% 0 mm 455.0 W/m2
08:40 22.5 °C 10.3 °C 1006.7 hPa Calm   1.6 km/h 46% 0 mm 450.0 W/m2
08:45 22.9 °C 6.6 °C 1006.7 hPa Calm   3.2 km/h 35% 0 mm 448.0 W/m2
08:50 23.2 °C 2.6 °C 1006.7 hPa North 1.4 km/h 4.8 km/h 26% 0 mm 434.0 W/m2
08:56 23.6 °C 5 °C 1006.7 hPa SW 1.4 km/h 1.6 km/h 30% 0 mm 445.0 W/m2
09:01 23.8 °C 5.2 °C 1006.7 hPa NNW 4.7 km/h 6.4 km/h 30% 0 mm 415.0 W/m2
09:07 24.2 °C 5 °C 1006.7 hPa Calm   6.4 km/h 29% 0 mm 540.0 W/m2
09:12 24.5 °C 2.6 °C 1006.7 hPa NNE 4.7 km/h 6.4 km/h 24% 0 mm 543.0 W/m2
09:17 24.8 °C 2.9 °C 1006.7 hPa Calm   4.8 km/h 24% 0 mm 490.0 W/m2
09:22 24.8 °C 4 °C 1006.7 hPa Calm   3.2 km/h 26% 0 mm 619.0 W/m2
09:32 24.9 °C 4.6 °C 1006.7 hPa WSW 6.4 km/h 8 km/h 27% 0 mm 599.0 W/m2
09:42 24.9 °C 3.5 °C 1006.7 hPa West 1.4 km/h 9.7 km/h 25% 0 mm 677.0 W/m2
09:47 24.9 °C 3.5 °C 1006.7 hPa SW 1.4 km/h 3.2 km/h 25% 0 mm 670.0 W/m2
09:53 25.1 °C 3.7 °C 1006.7 hPa North 3.2 km/h 6.4 km/h 25% 0 mm 761.0 W/m2
09:59 25.3 °C 3.3 °C 1006.7 hPa WNW 6.4 km/h 6.4 km/h 24% 0 mm 766.0 W/m2
10:04 25.7 °C 3 °C 1006.7 hPa Calm   1.6 km/h 23% 0 mm 752.0 W/m2
10:09 25.9 °C 3.2 °C 1006.7 hPa Calm   6.4 km/h 23% 0 mm 779.0 W/m2
10:14 26.3 °C 2.9 °C 1006.7 hPa WNW 1.4 km/h 9.7 km/h 22% 0 mm 814.0 W/m2
10:19 26.7 °C 3.2 °C 1006.7 hPa Calm   6.4 km/h 22% 0 mm 835.0 W/m2
10:24 26.9 °C 3.4 °C 1006.7 hPa NNW 6.4 km/h 8 km/h 22% 0 mm 842.0 W/m2
10:34 27.2 °C 3.6 °C 1006.7 hPa NE 4.7 km/h 14.5 km/h 22% 0 mm 872.0 W/m2
10:45 27.5 °C 3.9 °C 1006.7 hPa West 4.7 km/h 8 km/h 22% 0 mm 900.0 W/m2
10:50 27.6 °C 4 °C 1006.7 hPa NNW 1.4 km/h 8 km/h 22% 0 mm 912.0 W/m2
10:56 27.8 °C 4.8 °C 1006.7 hPa Calm   6.4 km/h 23% 0 mm 926.0 W/m2
11:01 28.2 °C 3.8 °C 1006.3 hPa Calm   4.8 km/h 21% 0 mm 932.0 W/m2
11:06 28.4 °C 3.3 °C 1006.3 hPa NNW 9.7 km/h 11.3 km/h 20% 0 mm 947.0 W/m2
11:11 28.5 °C 3.4 °C 1006.7 hPa North 6.4 km/h 8 km/h 20% 0 mm 939.0 W/m2
11:16 28.5 °C 3.4 °C 1006.3 hPa Calm   9.7 km/h 20% 0 mm 935.0 W/m2
11:21 28.4 °C 2.6 °C 1006.3 hPa Calm   8 km/h 19% 0 mm 976.0 W/m2
11:26 28.4 °C 2.6 °C 1006.3 hPa Calm   1.6 km/h 19% 0 mm 997.0 W/m2
11:32 28.6 °C 2 °C 1006.3 hPa NW 3.2 km/h 8 km/h 18% 0 mm 991.0 W/m2
11:37 28.9 °C 3 °C 1006.3 hPa Calm   8 km/h 19% 0 mm 1000.0 W/m2
11:42 29.2 °C 1.6 °C 1006.3 hPa WNW 1.4 km/h 12.9 km/h 17% 0 mm 1023.0 W/m2
11:47 29.2 °C 1.6 °C 1006.3 hPa Calm   8 km/h 17% 0 mm 990.0 W/m2
11:52 29.4 °C 2.6 °C 1006.3 hPa WNW 4.7 km/h 11.3 km/h 18% 0 mm 1034.0 W/m2
11:57 29.7 °C 2.8 °C 1006.3 hPa WSW 6.4 km/h 8 km/h 18% 0 mm 1034.0 W/m2
12:02 29.5 °C 2.7 °C 1006 hPa South 3.2 km/h 11.3 km/h 18% 0 mm 1023.0 W/m2
12:07 29.4 °C 3.4 °C 1006.3 hPa WNW 1.4 km/h 17.7 km/h 19% 0 mm 1032.0 W/m2
12:12 29.7 °C 2.8 °C 1006 hPa Calm   8 km/h 18% 0 mm 1046.0 W/m2
12:17 29.8 °C 2.9 °C 1006 hPa SW 1.4 km/h 9.7 km/h 18% 0 mm 1055.0 W/m2
12:22 29.8 °C 2.9 °C 1006 hPa NNW 1.4 km/h 4.8 km/h 18% 0 mm 1056.0 W/m2
12:28 30.1 °C 3.2 °C 1006 hPa WNW 4.7 km/h 11.3 km/h 18% 0 mm 1065.0 W/m2
12:33 29.9 °C 3 °C 1006 hPa Calm   11.3 km/h 18% 0 mm 1065.0 W/m2
12:48 30.3 °C 3.3 °C 1005.6 hPa WNW 3.2 km/h 11.3 km/h 18% 0 mm 1067.0 W/m2
12:53 30.5 °C 3.5 °C 1005.6 hPa NNW 4.7 km/h 4.8 km/h 18% 0 mm 1067.0 W/m2
12:58 30.5 °C 3.5 °C 1005.3 hPa NNE 3.2 km/h 11.3 km/h 18% 0 mm 1065.0 W/m2
13:03 30.8 °C 3.7 °C 1005.6 hPa WNW 14.3 km/h 16.1 km/h 18% 0 mm 1063.0 W/m2
13:08 31.1 °C 4 °C 1005.3 hPa WNW 1.4 km/h 11.3 km/h 18% 0 mm 1063.0 W/m2
13:14 31.3 °C 4.9 °C 1005.3 hPa Calm   14.5 km/h 19% 0 mm 1056.0 W/m2
13:19 31.2 °C 4.8 °C 1005.3 hPa SSW 3.2 km/h 6.4 km/h 19% 0 mm 1056.0 W/m2
13:29 31.6 °C 5.2 °C 1005 hPa NE 1.4 km/h 3.2 km/h 19% 0 mm 1056.0 W/m2
13:40 31.6 °C 4.4 °C 1005 hPa NNW 7.9 km/h 14.5 km/h 18% 0 mm 1049.0 W/m2
13:45 31.4 °C 5 °C 1005 hPa WNW 3.2 km/h 6.4 km/h 19% 0 mm 1035.0 W/m2
14:00 31.8 °C 5.3 °C 1004.6 hPa NNE 4.7 km/h 8 km/h 19% 0 mm 1021.0 W/m2
14:05 32 °C 4.7 °C 1004.6 hPa NNW 4.7 km/h 14.5 km/h 18% 0 mm 1025.0 W/m2
14:15 32.2 °C 4.9 °C 1004.3 hPa WNW 1.4 km/h 11.3 km/h 18% 0 mm 997.0 W/m2
14:20 32.2 °C 4.9 °C 1004.3 hPa NNW 4.7 km/h 12.9 km/h 18% 0 mm 993.0 W/m2
14:30 32.4 °C 5 °C 1004.3 hPa West 9.7 km/h 11.3 km/h 18% 0 mm 1027.0 W/m2
14:36 32.3 °C 5 °C 1003.9 hPa WSW 7.9 km/h 14.5 km/h 18% 0 mm 1018.0 W/m2
14:52 31.6 °C 5.2 °C 1003.9 hPa NNW 6.4 km/h 12.9 km/h 19% 0 mm 969.0 W/m2
14:57 31.9 °C 5.4 °C 1003.9 hPa WSW 11.1 km/h 17.7 km/h 19% 0 mm 954.0 W/m2
15:02 32.2 °C 4.9 °C 1003.9 hPa WNW 3.2 km/h 19.3 km/h 18% 0 mm 940.0 W/m2
15:07 32.1 °C 5.6 °C 1003.9 hPa NW 6.4 km/h 12.9 km/h 19% 0 mm 921.0 W/m2
15:12 32.2 °C 4.9 °C 1003.9 hPa WNW 13 km/h 14.5 km/h 18% 0 mm 907.0 W/m2
15:17 32.1 °C 5.6 °C 1003.6 hPa West 3.2 km/h 24.1 km/h 19% 0 mm 893.0 W/m2
15:22 32.3 °C 5 °C 1003.6 hPa NNW 3.2 km/h 12.9 km/h 18% 0 mm 886.0 W/m2
15:33 32.7 °C 5.3 °C 1003.3 hPa North 3.2 km/h 12.9 km/h 18% 0 mm 856.0 W/m2
15:43 32.4 °C 5 °C 1002.9 hPa NNW 3.2 km/h 8 km/h 18% 0 mm 826.0 W/m2
15:53 32.7 °C 6.1 °C 1002.9 hPa WNW 3.2 km/h 14.5 km/h 19% 0 mm 800.0 W/m2
15:58 32.8 °C 6.1 °C 1002.9 hPa WSW 4.7 km/h 9.7 km/h 19% 0 mm 779.0 W/m2
16:03 32.9 °C 6.2 °C 1002.9 hPa West 1.4 km/h 17.7 km/h 19% 0 mm 765.0 W/m2
16:08 32.6 °C 6 °C 1002.9 hPa SW 6.4 km/h 11.3 km/h 19% 0 mm 768.0 W/m2
16:14 32.4 °C 5.8 °C 1002.6 hPa SW 4.7 km/h 8 km/h 19% 0 mm 758.0 W/m2
16:19 32.7 °C 6.1 °C 1002.6 hPa West 3.2 km/h 17.7 km/h 19% 0 mm 722.0 W/m2
16:24 32.8 °C 6.1 °C 1002.6 hPa West 4.7 km/h 11.3 km/h 19% 0 mm 696.0 W/m2
16:30 32.8 °C 6.1 °C 1002.6 hPa NW 3.2 km/h 17.7 km/h 19% 0 mm 675.0 W/m2
16:35 32.7 °C 6.1 °C 1002.6 hPa NW 4.7 km/h 11.3 km/h 19% 0 mm 657.0 W/m2
16:40 32.4 °C 5.8 °C 1002.3 hPa West 7.9 km/h 9.7 km/h 19% 0 mm 647.0 W/m2
16:45 32.6 °C 6.7 °C 1002.3 hPa SW 6.4 km/h 16.1 km/h 20% 0 mm 629.0 W/m2
16:50 32.2 °C 6.4 °C 1002.6 hPa WSW 13 km/h 14.5 km/h 20% 0 mm 610.0 W/m2
16:55 32 °C 6.2 °C 1002.3 hPa West 7.9 km/h 9.7 km/h 20% 0 mm 587.0 W/m2
17:01 32.1 °C 6.3 °C 1002.3 hPa NW 1.4 km/h 16.1 km/h 20% 0 mm 570.0 W/m2
17:06 32.1 °C 6.3 °C 1002.3 hPa SW 3.2 km/h 14.5 km/h 20% 0 mm 559.0 W/m2
17:11 31.7 °C 6 °C 1002.3 hPa SW 6.4 km/h 19.3 km/h 20% 0 mm 536.0 W/m2
17:16 31.4 °C 5.7 °C 1002.3 hPa West 11.1 km/h 16.1 km/h 20% 0 mm 512.0 W/m2
17:21 31.3 °C 5.7 °C 1001.9 hPa West 19.5 km/h 27.4 km/h 20% 0 mm 494.0 W/m2
17:26 31.3 °C 5.7 °C 1002.3 hPa West 9.7 km/h 12.9 km/h 20% 0 mm 473.0 W/m2
17:31 31.3 °C 5.7 °C 1002.3 hPa West 9.7 km/h 11.3 km/h 20% 0 mm 455.0 W/m2
17:37 31.4 °C 5.7 °C 1002.3 hPa WSW 6.4 km/h 17.7 km/h 20% 0 mm 429.0 W/m2
17:42 31.1 °C 5.5 °C 1002.3 hPa WSW 7.9 km/h 12.9 km/h 20% 0 mm 408.0 W/m2
17:47 30.9 °C 5.3 °C 1002.3 hPa West 3.2 km/h 17.7 km/h 20% 0 mm 390.0 W/m2
17:52 30.7 °C 4.4 °C 1002.3 hPa WSW 11.1 km/h 14.5 km/h 19% 0 mm 371.0 W/m2
17:57 30.5 °C 4.3 °C 1002.3 hPa SW 3.2 km/h 17.7 km/h 19% 0 mm 348.0 W/m2
18:02 30.3 °C 4.1 °C 1002.3 hPa WNW 6.4 km/h 17.7 km/h 19% 0 mm 332.0 W/m2
18:07 30.3 °C 4.1 °C 1002.3 hPa SSW 6.4 km/h 19.3 km/h 19% 0 mm 311.0 W/m2
18:12 30.1 °C 3.9 °C 1002.3 hPa WNW 6.4 km/h 17.7 km/h 19% 0 mm 290.0 W/m2
18:18 29.9 °C 3.8 °C 1002.3 hPa West 14.3 km/h 14.5 km/h 19% 0 mm 264.0 W/m2
18:23 29.8 °C 3.7 °C 1002.6 hPa SW 4.7 km/h 17.7 km/h 19% 0 mm 241.0 W/m2
18:28 29.7 °C 3.6 °C 1002.6 hPa South 7.9 km/h 20.9 km/h 19% 0 mm 213.0 W/m2
18:33 29.4 °C 4.1 °C 1002.6 hPa WSW 14.3 km/h 19.3 km/h 20% 0 mm 199.0 W/m2
18:38 29.1 °C 3.9 °C 1002.6 hPa WSW 3.2 km/h 22.5 km/h 20% 0 mm 176.0 W/m2
18:43 28.8 °C 3.6 °C 1002.6 hPa West 11.1 km/h 16.1 km/h 20% 0 mm 162.0 W/m2
18:48 28.5 °C 4.1 °C 1002.9 hPa WSW 11.1 km/h 24.1 km/h 21% 0 mm 135.0 W/m2
18:53 27.9 °C 3.6 °C 1002.9 hPa SW 7.9 km/h 17.7 km/h 21% 0 mm 104.0 W/m2
18:59 27.5 °C 3.9 °C 1002.9 hPa WNW 14.3 km/h 22.5 km/h 22% 0 mm 44.0 W/m2
19:04 27.2 °C 3.6 °C 1002.9 hPa West 7.9 km/h 11.3 km/h 22% 0 mm 28.0 W/m2
19:09 27 °C 3.5 °C 1003.3 hPa SW 7.9 km/h 20.9 km/h 22% 0 mm 25.0 W/m2
19:14 26.7 °C 3.2 °C 1003.3 hPa WSW 7.9 km/h 24.1 km/h 22% 0 mm 21.0 W/m2
19:19 26.3 °C 3.5 °C 1003.3 hPa WSW 14.3 km/h 14.5 km/h 23% 0 mm 16.0 W/m2
19:24 26.1 °C 3.3 °C 1003.3 hPa WSW 13 km/h 22.5 km/h 23% 0 mm 14.0 W/m2
19:29 25.9 °C 3.2 °C 1003.6 hPa WSW 11.1 km/h 11.3 km/h 23% 0 mm 11.0 W/m2
19:34 25.7 °C 3 °C 1003.6 hPa West 3.2 km/h 14.5 km/h 23% 0 mm 9.0 W/m2
19:40 25.5 °C 2.8 °C 1003.6 hPa West 9.7 km/h 14.5 km/h 23% 0 mm 5.0 W/m2
19:45 25.3 °C 2.7 °C 1003.9 hPa West 7.9 km/h 11.3 km/h 23% 0 mm 0.0 W/m2
19:50 25.1 °C 2.5 °C 1003.9 hPa WSW 7.9 km/h 8 km/h 23% 0 mm 0.0 W/m2
19:55 24.9 °C 2.3 °C 1003.9 hPa West 7.9 km/h 11.3 km/h 23% 0 mm 0.0 W/m2
20:00 24.7 °C 2.2 °C 1003.9 hPa West 9.7 km/h 12.9 km/h 23% 0 mm 0.0 W/m2
20:05 24.6 °C 2.1 °C 1004.3 hPa WNW 4.7 km/h 11.3 km/h 23% 0 mm 0.0 W/m2
20:10 24.4 °C 1.9 °C 1004.3 hPa SSW 9.7 km/h 11.3 km/h 23% 0 mm 0.0 W/m2
20:15 24.3 °C 2.4 °C 1004.3 hPa SW 4.7 km/h 9.7 km/h 24% 0 mm 0.0 W/m2
20:21 24.2 °C 2.4 °C 1004.3 hPa WSW 3.2 km/h 4.8 km/h 24% 0 mm 0.0 W/m2
20:26 24 °C 2.2 °C 1004.3 hPa SW 3.2 km/h 9.7 km/h 24% 0 mm 0.0 W/m2
20:31 23.9 °C 2.1 °C 1004.3 hPa WSW 4.7 km/h 4.8 km/h 24% 0 mm 0.0 W/m2
20:37 23.7 °C 1.9 °C 1004.3 hPa SSW 1.4 km/h 9.7 km/h 24% 0 mm 0.0 W/m2
20:42 23.6 °C 1.8 °C 1004.3 hPa WSW 4.7 km/h 8 km/h 24% 0 mm 0.0 W/m2
20:47 23.4 °C 1.1 °C 1004.6 hPa SW 13 km/h 13 km/h 23% 0 mm 0.0 W/m2
20:53 23.2 °C 0.9 °C 1004.6 hPa West 4.7 km/h 12.9 km/h 23% 0 mm 0.0 W/m2
20:58 23.1 °C 0.8 °C 1004.6 hPa West 6.4 km/h 11.3 km/h 23% 0 mm 0.0 W/m2
21:03 22.9 °C 0.7 °C 1004.6 hPa WSW 6.4 km/h 16.1 km/h 23% 0 mm 0.0 W/m2
21:08 22.8 °C 0.6 °C 1004.6 hPa SW 7.9 km/h 16.1 km/h 23% 0 mm 0.0 W/m2
21:13 22.7 °C 0.5 °C 1004.6 hPa West 13 km/h 16.1 km/h 23% 0 mm 0.0 W/m2
21:19 22.7 °C 0.5 °C 1004.6 hPa West 3.2 km/h 19.3 km/h 23% 0 mm 0.0 W/m2
21:24 22.6 °C 0.4 °C 1004.6 hPa SW 6.4 km/h 22.5 km/h 23% 0 mm 0.0 W/m2
21:29 22.6 °C 0.4 °C 1004.6 hPa WSW 4.7 km/h 11.3 km/h 23% 0 mm 0.0 W/m2
21:35 22.4 °C 0.2 °C 1004.6 hPa WSW 6.4 km/h 11.3 km/h 23% 0 mm 0.0 W/m2
21:40 22.4 °C 0.2 °C 1005 hPa SW 1.4 km/h 22.5 km/h 23% 0 mm 0.0 W/m2
21:45 22.3 °C 0.2 °C 1005 hPa West 3.2 km/h 9.7 km/h 23% 0 mm 0.0 W/m2
21:50 22.2 °C 0.7 °C 1005 hPa West 13 km/h 17.7 km/h 24% 0 mm 0.0 W/m2
21:55 22.1 °C 0.6 °C 1005 hPa SSW 1.4 km/h 12.9 km/h 24% 0 mm 0.0 W/m2
22:00 22 °C 0.5 °C 1005.3 hPa SE 7.9 km/h 12.9 km/h 24% 0 mm 0.0 W/m2
22:05 21.9 °C 1 °C 1005.3 hPa West 1.4 km/h 12.9 km/h 25% 0 mm 0.0 W/m2
22:10 21.8 °C 0.9 °C 1005.3 hPa West 7.9 km/h 14.5 km/h 25% 0 mm 0.0 W/m2
22:15 21.8 °C 0.9 °C 1005.3 hPa West 6.4 km/h 14.5 km/h 25% 0 mm 0.0 W/m2
22:20 21.8 °C 0.9 °C 1005.3 hPa South 6.4 km/h 6.4 km/h 25% 0 mm 0.0 W/m2
22:26 21.7 °C 0.8 °C 1005.6 hPa SSW 3.2 km/h 12.9 km/h 25% 0 mm 0.0 W/m2
22:31 21.7 °C 0.8 °C 1005.6 hPa SW 1.4 km/h 14.5 km/h 25% 0 mm 0.0 W/m2
22:36 21.6 °C 0.7 °C 1005.6 hPa South 4.7 km/h 9.7 km/h 25% 0 mm 0.0 W/m2
22:41 21.6 °C 1.3 °C 1005.6 hPa Calm   3.2 km/h 26% 0 mm 0.0 W/m2
22:47 21.5 °C 1.2 °C 1005.6 hPa South 1.4 km/h 4.8 km/h 26% 0 mm 0.0 W/m2
22:52 21.4 °C 1.1 °C 1005.6 hPa SW 3.2 km/h 4.8 km/h 26% 0 mm 0.0 W/m2
22:57 21.4 °C 1.1 °C 1005.6 hPa WSW 3.2 km/h 4.8 km/h 26% 0 mm 0.0 W/m2
23:02 21.3 °C 1 °C 1006 hPa Calm   3.2 km/h 26% 0 mm 0.0 W/m2
23:07 21.3 °C 1 °C 1006 hPa Calm   1.6 km/h 26% 0 mm 0.0 W/m2
23:12 21.2 °C 1.5 °C 1006 hPa Calm     27% 0 mm 0.0 W/m2
23:17 21.1 °C 1.4 °C 1006 hPa Calm     27% 0 mm 0.0 W/m2
23:22 21 °C 1.3 °C 1006 hPa Calm   1.6 km/h 27% 0 mm 0.0 W/m2
23:28 20.9 °C 1.2 °C 1006 hPa NNW 1.4 km/h 3.2 km/h 27% 0 mm 0.0 W/m2
23:33 20.9 °C 1.2 °C 1006 hPa Calm   1.6 km/h 27% 0 mm 0.0 W/m2
23:38 20.8 °C 1.1 °C 1006 hPa Calm   3.2 km/h 27% 0 mm 0.0 W/m2
23:43 20.8 °C 0.6 °C 1006 hPa Calm   1.6 km/h 26% 0 mm 0.0 W/m2
23:48 20.9 °C 0.7 °C 1006 hPa Calm   1.6 km/h 26% 0 mm 0.0 W/m2
23:53 20.9 °C 1.2 °C 1006.3 hPa Calm   4.8 km/h 27% 0 mm 0.0 W/m2
23:58 20.8 °C 1.1 °C 1006.3 hPa NNW 3.2 km/h 3.2 km/h 27% 0 mm 0.0 W/m2
Olympia, Windhoek, Namibia
Compliments of Weather Underground - 3.25 mb